Time;durP1;ratioP1;P1;durP2;ratioP2;P2;SDS_P1;SDS_P2;PMS_P1;PMS_P2;Temp;Humidity;BMP_temperature;BMP_pressure;BME280_temperature;BME280_humidity;BME280_pressure;Samples;Min_cycle;Max_cycle;Signal;HPM_P1;HPM_P2
2023/10/02 00:00:30;;;;;;;27.00;14.88;;;;;;;;;;10340883;28;20127;-73
2023/10/02 00:05:40;;;;;;;20.95;14.57;;;;;;;;;;10372066;28;20423;-73
2023/10/02 00:10:40;;;;;;;20.63;15.20;;;;;;;;;;10359988;28;20055;-72
2023/10/02 00:15:37;;;;;;;23.35;16.25;;;;;;;;;;10370617;28;20506;-72
2023/10/02 00:20:33;;;;;;;21.25;15.93;;;;;;;;;;10357748;28;20051;-72
2023/10/02 00:25:29;;;;;;;22.02;14.73;;;;;;;;;;10375002;28;20538;-72
2023/10/02 00:30:48;;;;;;;24.70;15.43;;;;;;;;;;10370013;28;20048;-73
2023/10/02 00:35:52;;;;;;;21.95;15.85;;;;;;;;;;10350340;28;20044;-73
2023/10/02 00:40:48;;;;;;;23.50;16.38;;;;;;;;;;10361093;28;20047;-72
2023/10/02 00:45:44;;;;;;;24.27;16.45;;;;;;;;;;10360218;28;20066;-72
2023/10/02 00:50:49;;;;;;;21.23;15.95;;;;;;;;;;10365698;28;20044;-73
2023/10/02 00:55:46;;;;;;;23.80;17.63;;;;;;;;;;10359435;28;20651;-73
2023/10/02 01:00:47;;;;;;;23.00;16.58;;;;;;;;;;10364372;28;20506;-73
2023/10/02 01:05:58;;;;;;;27.33;17.17;;;;;;;;;;10351560;28;20060;-73
2023/10/02 01:11:03;;;;;;;22.65;15.80;;;;;;;;;;10364142;28;20495;-72
2023/10/02 01:16:03;;;;;;;31.77;17.48;;;;;;;;;;10362003;28;20112;-73
2023/10/02 01:21:00;;;;;;;27.70;17.05;;;;;;;;;;10354292;28;20114;-73
2023/10/02 01:25:58;;;;;;;25.17;17.00;;;;;;;;;;10347539;28;20040;-72
2023/10/02 01:30:55;;;;;;;28.17;17.60;;;;;;;;;;10376539;28;20048;-73
2023/10/02 01:35:55;;;;;;;23.13;16.00;;;;;;;;;;10363630;28;20043;-73
2023/10/02 01:41:03;;;;;;;24.35;17.42;;;;;;;;;;10359516;28;20516;-72
2023/10/02 01:46:03;;;;;;;25.27;17.38;;;;;;;;;;10365727;28;20060;-72
2023/10/02 01:51:15;;;;;;;23.17;17.17;;;;;;;;;;10362227;28;20076;-72
2023/10/02 01:56:12;;;;;;;22.83;17.15;;;;;;;;;;10363504;28;20055;-72
2023/10/02 02:01:09;;;;;;;25.60;17.45;;;;;;;;;;10357374;28;20087;-72
2023/10/02 02:06:09;;;;;;;26.17;17.15;;;;;;;;;;10366805;28;20073;-73
2023/10/02 02:11:16;;;;;;;25.17;17.17;;;;;;;;;;10369504;28;20066;-72
2023/10/02 02:16:15;;;;;;;28.65;17.45;;;;;;;;;;10333417;28;20043;-70
2023/10/02 02:21:18;;;;;;;29.38;18.25;;;;;;;;;;10352970;28;20137;-70
2023/10/02 02:26:21;;;;;;;27.55;17.58;;;;;;;;;;10360537;28;20511;-70
2023/10/02 02:31:30;;;;;;;22.60;17.38;;;;;;;;;;10363403;28;20048;-70
2023/10/02 02:36:28;;;;;;;21.98;17.58;;;;;;;;;;10367721;28;20055;-70
2023/10/02 02:41:24;;;;;;;26.48;18.10;;;;;;;;;;10370459;28;20051;-70
2023/10/02 02:46:22;;;;;;;22.48;16.83;;;;;;;;;;10349006;28;20499;-70
2023/10/02 02:51:21;;;;;;;22.17;17.20;;;;;;;;;;10352580;28;20051;-70
2023/10/02 02:56:18;;;;;;;21.15;17.50;;;;;;;;;;10354533;28;20052;-70
2023/10/02 03:01:21;;;;;;;25.20;17.50;;;;;;;;;;10346836;28;20056;-70
2023/10/02 03:06:22;;;;;;;20.90;17.90;;;;;;;;;;10359618;28;20044;-71
2023/10/02 03:11:22;;;;;;;22.35;17.42;;;;;;;;;;10351459;28;20040;-70
2023/10/02 03:16:28;;;;;;;23.92;18.63;;;;;;;;;;10372523;28;20051;-70
2023/10/02 03:21:25;;;;;;;20.48;17.48;;;;;;;;;;10373198;28;20089;-70
2023/10/02 03:31:35;;;;;;;23.70;18.58;;;;;;;;;;10363557;28;20058;-70
2023/10/02 03:36:33;;;;;;;24.38;19.38;;;;;;;;;;10364690;28;20066;-70
2023/10/02 03:41:44;;;;;;;23.75;18.98;;;;;;;;;;10362751;28;20189;-70
2023/10/02 03:46:42;;;;;;;22.70;18.25;;;;;;;;;;10359455;28;20050;-70
2023/10/02 03:51:41;;;;;;;31.00;19.73;;;;;;;;;;10358545;28;20048;-69
2023/10/02 03:56:42;;;;;;;26.13;19.55;;;;;;;;;;10362074;28;20052;-69
2023/10/02 04:01:40;;;;;;;21.63;19.05;;;;;;;;;;10372511;28;20055;-69
2023/10/02 04:06:37;;;;;;;27.02;20.40;;;;;;;;;;10356537;28;20087;-69
2023/10/02 04:11:33;;;;;;;25.75;20.48;;;;;;;;;;10368411;28;20152;-69
2023/10/02 04:16:30;;;;;;;25.63;20.17;;;;;;;;;;10370041;28;20148;-69
2023/10/02 04:21:27;;;;;;;22.75;20.33;;;;;;;;;;10364472;28;20566;-68
2023/10/02 04:26:24;;;;;;;26.02;21.02;;;;;;;;;;10365733;28;20710;-68
2023/10/02 04:31:30;;;;;;;26.95;21.08;;;;;;;;;;10377876;28;20055;-69
2023/10/02 04:36:34;;;;;;;25.45;20.02;;;;;;;;;;10356970;28;20055;-69
2023/10/02 04:41:37;;;;;;;27.13;20.92;;;;;;;;;;10336092;28;20067;-69
2023/10/02 04:46:34;;;;;;;26.88;20.38;;;;;;;;;;10366302;28;20056;-69
2023/10/02 04:51:30;;;;;;;27.85;19.80;;;;;;;;;;10360173;28;20052;-68
2023/10/02 04:56:28;;;;;;;24.75;20.00;;;;;;;;;;10367594;28;20047;-68
2023/10/02 05:01:41;;;;;;;23.67;19.35;;;;;;;;;;10362052;28;20387;-68
2023/10/02 05:06:44;;;;;;;28.42;20.98;;;;;;;;;;10332219;28;20044;-68
2023/10/02 05:11:52;;;;;;;24.02;19.30;;;;;;;;;;10368725;28;20603;-69
2023/10/02 05:16:48;;;;;;;25.60;20.95;;;;;;;;;;10366302;28;20048;-70
2023/10/02 05:21:51;;;;;;;25.38;20.23;;;;;;;;;;10363747;28;20474;-71
2023/10/02 05:26:47;;;;;;;24.30;20.05;;;;;;;;;;10356214;28;20048;-71
2023/10/02 05:31:45;;;;;;;25.35;19.80;;;;;;;;;;10365449;28;20056;-70
2023/10/02 05:37:00;;;;;;;27.40;19.60;;;;;;;;;;10354836;28;20043;-70
2023/10/02 05:42:05;;;;;;;23.85;18.83;;;;;;;;;;10350002;28;20048;-70
2023/10/02 05:47:05;;;;;;;27.88;19.88;;;;;;;;;;10361303;28;20056;-70
2023/10/02 05:52:07;;;;;;;27.38;19.95;;;;;;;;;;10367794;28;20768;-70
2023/10/02 05:57:13;;;;;;;26.15;19.80;;;;;;;;;;10367197;28;20051;-70
2023/10/02 06:02:11;;;;;;;;;;;;;;;;;;10358286;28;20535;-70
2023/10/02 06:07:11;;;;;;;24.92;19.17;;;;;;;;;;10364592;28;20009;-70
2023/10/02 06:12:08;;;;;;;29.35;19.08;;;;;;;;;;10360573;28;20440;-70
2023/10/02 06:17:05;;;;;;;29.30;19.52;;;;;;;;;;10364618;28;20109;-70
2023/10/02 06:22:04;;;;;;;28.38;18.38;;;;;;;;;;10355959;28;20132;-70
2023/10/02 06:27:05;;;;;;;26.48;18.45;;;;;;;;;;10358879;28;20059;-70
2023/10/02 06:32:22;;;;;;;19.85;16.88;;;;;;;;;;10373974;28;20070;-70
2023/10/02 06:37:21;;;;;;;26.40;19.50;;;;;;;;;;10355051;28;20113;-70
2023/10/02 06:42:19;;;;;;;25.95;18.48;;;;;;;;;;10362627;28;20052;-70
2023/10/02 06:47:15;;;;;;;25.00;18.52;;;;;;;;;;10360450;28;20719;-70
2023/10/02 06:52:15;;;;;;;30.23;17.98;;;;;;;;;;10354324;28;20052;-70
2023/10/02 06:57:13;;;;;;;31.85;19.20;;;;;;;;;;10351996;28;20514;-70
2023/10/02 07:02:09;;;;;;;24.08;17.95;;;;;;;;;;10353087;28;20105;-70
2023/10/02 07:07:10;;;;;;;25.48;19.70;;;;;;;;;;10353429;28;20070;-70
2023/10/02 07:12:09;;;;;;;26.67;18.92;;;;;;;;;;10345593;28;20464;-70
2023/10/02 07:17:17;;;;;;;23.08;17.40;;;;;;;;;;10353845;28;20098;-70
2023/10/02 07:22:16;;;;;;;24.60;17.73;;;;;;;;;;10363968;28;20075;-70
2023/10/02 07:27:23;;;;;;;25.48;18.55;;;;;;;;;;10354315;28;20087;-70
2023/10/02 07:32:29;;;;;;;25.45;18.48;;;;;;;;;;10366702;28;20060;-70
2023/10/02 07:37:26;;;;;;;25.73;17.75;;;;;;;;;;10355074;28;20055;-70
2023/10/02 07:42:23;;;;;;;30.85;18.85;;;;;;;;;;10352345;28;20051;-70
2023/10/02 07:47:21;;;;;;;21.58;17.40;;;;;;;;;;10360682;28;20043;-71
2023/10/02 07:52:29;;;;;;;26.52;17.50;;;;;;;;;;10368352;28;20109;-71
2023/10/02 07:57:32;;;;;;;25.90;19.08;;;;;;;;;;10367399;28;20500;-71
2023/10/02 08:02:33;;;;;;;25.00;17.60;;;;;;;;;;10357290;28;20093;-71
2023/10/02 08:07:30;;;;;;;22.67;17.33;;;;;;;;;;10337981;28;20060;-70
2023/10/02 08:12:54;;;;;;;28.80;18.33;;;;;;;;;;10368910;28;20154;-71
2023/10/02 08:22:51;;;;;;;25.92;17.90;;;;;;;;;;10351721;28;20427;-71
2023/10/02 08:27:58;;;;;;;26.27;16.90;;;;;;;;;;10354481;28;20505;-71
2023/10/02 08:33:08;;;;;;;31.00;17.63;;;;;;;;;;10378691;28;20139;-70
2023/10/02 08:38:26;;;;;;;26.50;16.80;;;;;;;;;;10356405;28;20527;-71
2023/10/02 08:43:23;;;;;;;25.98;17.65;;;;;;;;;;10365486;28;20420;-71
2023/10/02 08:48:20;;;;;;;28.42;18.02;;;;;;;;;;10354799;28;20078;-71
2023/10/02 08:53:20;;;;;;;25.58;17.25;;;;;;;;;;10349425;28;20044;-71
2023/10/02 08:58:20;;;;;;;27.10;16.58;;;;;;;;;;10354436;28;20099;-71
2023/10/02 09:03:18;;;;;;;26.23;17.90;;;;;;;;;;10356910;28;20619;-71
2023/10/02 09:08:15;;;;;;;28.05;18.13;;;;;;;;;;10346550;28;20048;-71
2023/10/02 09:13:17;;;;;;;27.42;16.88;;;;;;;;;;10362563;28;20048;-71
2023/10/02 09:18:33;;;;;;;25.73;17.37;;;;;;;;;;10350086;28;20045;-70
2023/10/02 09:23:30;;;;;;;26.83;16.80;;;;;;;;;;10324337;28;20868;-70
2023/10/02 09:28:41;;;;;;;27.60;16.73;;;;;;;;;;10354457;28;20174;-71
2023/10/02 09:33:37;;;;;;;26.35;17.88;;;;;;;;;;10352525;28;20052;-70
2023/10/02 09:38:56;;;;;;;27.35;15.90;;;;;;;;;;10358730;28;20052;-70
2023/10/02 09:43:53;;;;;;;24.42;16.65;;;;;;;;;;10342048;28;20590;-71
2023/10/02 09:49:01;;;;;;;26.13;16.05;;;;;;;;;;10365783;28;20056;-71
2023/10/02 09:54:04;;;;;;;24.70;16.38;;;;;;;;;;10362923;28;20412;-71
2023/10/02 09:59:16;;;;;;;;;;;;;;;;;;10358873;28;20055;-70
2023/10/02 10:04:32;;;;;;;26.38;17.63;;;;;;;;;;10351221;28;20011;-71
2023/10/02 10:09:50;;;;;;;20.85;15.52;;;;;;;;;;10361499;28;20101;-71
2023/10/02 10:14:44;;;;;;;22.67;15.73;;;;;;;;;;10352052;28;20040;-71
2023/10/02 10:25:41;;;;;;;22.58;15.90;;;;;;;;;;10314996;28;20419;-71
2023/10/02 10:35:36;;;;;;;27.48;15.52;;;;;;;;;;10349173;28;20052;-71
2023/10/02 10:40:44;;;;;;;23.77;14.75;;;;;;;;;;10363213;28;20058;-71
2023/10/02 10:45:41;;;;;;;22.70;15.88;;;;;;;;;;10330567;28;20059;-71
2023/10/02 10:50:38;;;;;;;21.05;15.13;;;;;;;;;;10364766;28;20529;-71
2023/10/02 10:55:36;;;;;;;22.75;14.77;;;;;;;;;;10339218;28;20080;-71
2023/10/02 11:00:35;;;;;;;20.23;13.95;;;;;;;;;;10348640;28;20044;-71
2023/10/02 11:05:35;;;;;;;;;;;;;;;;;;10351089;28;20515;-70
2023/10/02 11:10:31;;;;;;;22.42;14.77;;;;;;;;;;10361282;28;19931;-71
2023/10/02 11:15:46;;;;;;;19.65;14.50;;;;;;;;;;10361863;28;20471;-70
2023/10/02 11:20:42;;;;;;;25.02;15.20;;;;;;;;;;10347727;28;20056;-70
2023/10/02 11:25:50;;;;;;;21.15;14.63;;;;;;;;;;10356575;28;20512;-71
2023/10/02 11:30:59;;;;;;;22.38;15.27;;;;;;;;;;10363179;28;20089;-71
2023/10/02 11:35:56;;;;;;;20.17;14.93;;;;;;;;;;10381729;28;20050;-71
2023/10/02 11:40:52;;;;;;;22.50;15.93;;;;;;;;;;10374407;28;20056;-71
2023/10/02 11:45:49;;;;;;;19.63;14.27;;;;;;;;;;10363022;28;20048;-71
2023/10/02 11:50:46;;;;;;;22.02;14.82;;;;;;;;;;10355482;28;20483;-70
2023/10/02 11:55:43;;;;;;;19.23;14.25;;;;;;;;;;10342433;28;20056;-71
2023/10/02 12:00:44;;;;;;;20.08;14.10;;;;;;;;;;10345000;28;20051;-71
2023/10/02 12:05:41;;;;;;;24.85;15.30;;;;;;;;;;10360531;28;20430;-71
2023/10/02 12:10:39;;;;;;;20.08;14.95;;;;;;;;;;10372336;28;20423;-71
2023/10/02 12:15:36;;;;;;;22.30;15.00;;;;;;;;;;10367971;28;20051;-71
2023/10/02 12:20:36;;;;;;;20.83;14.25;;;;;;;;;;10369097;28;20063;-71
2023/10/02 12:25:36;;;;;;;20.73;14.23;;;;;;;;;;10361113;28;20074;-71
2023/10/02 12:30:35;;;;;;;19.00;14.82;;;;;;;;;;10349916;28;20051;-70
2023/10/02 12:35:32;;;;;;;22.67;14.90;;;;;;;;;;10371898;28;20085;-71
2023/10/02 12:40:33;;;;;;;22.40;14.73;;;;;;;;;;10363079;28;20110;-71
2023/10/02 12:45:35;;;;;;;21.48;14.40;;;;;;;;;;10369906;28;20047;-71
2023/10/02 12:50:36;;;;;;;19.27;14.27;;;;;;;;;;10366926;28;20056;-71
2023/10/02 12:55:34;;;;;;;20.02;13.55;;;;;;;;;;10359291;28;20083;-71
2023/10/02 13:00:31;;;;;;;20.58;14.85;;;;;;;;;;10364328;28;20048;-71
2023/10/02 13:05:28;;;;;;;22.20;16.05;;;;;;;;;;10355689;28;20044;-71
2023/10/02 13:10:24;;;;;;;23.48;15.27;;;;;;;;;;10360994;28;20675;-71
2023/10/02 13:15:21;;;;;;;24.08;14.68;;;;;;;;;;10352213;28;20047;-71
2023/10/02 13:20:17;;;;;;;25.02;15.38;;;;;;;;;;10343090;28;20047;-71
2023/10/02 13:25:14;;;;;;;21.92;15.20;;;;;;;;;;10349398;28;20047;-70
2023/10/02 13:30:11;;;;;;;22.10;14.38;;;;;;;;;;10372691;28;20048;-71
2023/10/02 13:35:09;;;;;;;24.88;14.85;;;;;;;;;;10361394;28;20094;-71
2023/10/02 13:40:18;;;;;;;21.17;14.20;;;;;;;;;;10354950;28;20052;-71
2023/10/02 13:45:21;;;;;;;28.88;16.85;;;;;;;;;;10367911;28;20118;-71
2023/10/02 13:50:17;;;;;;;24.33;15.00;;;;;;;;;;10356238;28;20052;-70
2023/10/02 13:55:19;;;;;;;23.88;14.52;;;;;;;;;;10332600;28;20048;-71
2023/10/02 14:00:22;;;;;;;23.77;15.05;;;;;;;;;;10352047;28;20055;-70
2023/10/02 14:05:19;;;;;;;22.40;15.85;;;;;;;;;;10366357;28;20052;-71
2023/10/02 14:10:16;;;;;;;19.83;13.80;;;;;;;;;;10357636;28;20055;-70
2023/10/02 14:15:16;;;;;;;20.55;14.77;;;;;;;;;;10364233;28;20460;-71
2023/10/02 14:20:15;;;;;;;22.73;16.20;;;;;;;;;;10354353;28;20087;-70
2023/10/02 14:25:14;;;;;;;26.13;17.05;;;;;;;;;;10360934;28;20105;-70
2023/10/02 14:30:13;;;;;;;26.75;14.98;;;;;;;;;;10326835;28;20047;-70
2023/10/02 14:35:10;;;;;;;24.38;16.05;;;;;;;;;;10357414;28;20719;-70
2023/10/02 14:40:10;;;;;;;25.55;16.23;;;;;;;;;;10363890;28;20058;-70
2023/10/02 14:45:07;;;;;;;20.73;15.45;;;;;;;;;;10359681;28;20129;-70
2023/10/02 14:50:03;;;;;;;22.45;16.38;;;;;;;;;;10337994;28;20054;-70
2023/10/02 14:54:59;;;;;;;23.80;16.13;;;;;;;;;;10355573;28;20522;-70
2023/10/02 14:59:57;;;;;;;23.13;15.88;;;;;;;;;;10357341;28;20036;-70
2023/10/02 15:04:55;;;;;;;25.52;16.33;;;;;;;;;;10366716;28;20059;-70
2023/10/02 15:09:52;;;;;;;21.60;15.07;;;;;;;;;;10346087;28;20052;-70
2023/10/02 15:14:49;;;;;;;28.13;16.50;;;;;;;;;;10369088;28;20588;-70
2023/10/02 15:19:45;;;;;;;23.80;16.45;;;;;;;;;;10365274;28;20056;-70
2023/10/02 15:24:42;;;;;;;24.85;15.90;;;;;;;;;;10348639;28;20053;-70
2023/10/02 15:29:38;;;;;;;27.77;16.10;;;;;;;;;;10371772;28;20052;-70
2023/10/02 15:34:34;;;;;;;23.15;16.00;;;;;;;;;;10361488;28;20055;-70
2023/10/02 15:39:31;;;;;;;28.38;17.58;;;;;;;;;;10375163;28;20044;-70
2023/10/02 15:44:29;;;;;;;22.38;16.58;;;;;;;;;;10363971;28;20415;-70
2023/10/02 15:49:26;;;;;;;20.88;15.45;;;;;;;;;;10364722;28;20153;-70
2023/10/02 15:54:22;;;;;;;23.58;15.82;;;;;;;;;;10366244;28;20136;-70
2023/10/02 15:59:18;;;;;;;24.95;16.95;;;;;;;;;;10364090;28;20043;-70
2023/10/02 16:04:15;;;;;;;25.40;15.73;;;;;;;;;;10368455;28;20050;-71
2023/10/02 16:09:12;;;;;;;21.15;15.70;;;;;;;;;;10361133;28;20039;-70
2023/10/02 16:14:08;;;;;;;26.05;16.80;;;;;;;;;;10359494;28;20044;-70
2023/10/02 16:19:08;;;;;;;22.60;16.20;;;;;;;;;;10369142;28;20415;-70
2023/10/02 16:24:05;;;;;;;20.63;15.55;;;;;;;;;;10346710;28;20086;-70
2023/10/02 16:29:02;;;;;;;22.63;15.82;;;;;;;;;;10369848;28;20048;-70
2023/10/02 16:33:58;;;;;;;26.75;15.48;;;;;;;;;;10357995;28;20044;-70
2023/10/02 16:38:55;;;;;;;22.50;16.13;;;;;;;;;;10372136;28;20043;-70
2023/10/02 16:43:54;;;;;;;21.95;15.70;;;;;;;;;;10356145;28;20047;-70
2023/10/02 16:48:50;;;;;;;19.48;14.85;;;;;;;;;;10357433;28;20131;-70
2023/10/02 16:53:47;;;;;;;22.92;15.18;;;;;;;;;;10356668;28;20055;-70
2023/10/02 16:58:46;;;;;;;21.63;16.52;;;;;;;;;;10367751;28;20078;-70
2023/10/02 17:03:42;;;;;;;20.83;16.30;;;;;;;;;;10370094;28;20059;-70
2023/10/02 17:08:39;;;;;;;24.63;17.80;;;;;;;;;;10356609;28;20431;-70
2023/10/02 17:13:36;;;;;;;24.90;17.63;;;;;;;;;;10369006;28;20582;-70
2023/10/02 17:18:32;;;;;;;21.65;15.60;;;;;;;;;;10350852;28;20052;-69
2023/10/02 17:23:30;;;;;;;20.75;15.45;;;;;;;;;;10373556;28;20416;-70
2023/10/02 17:28:29;;;;;;;22.60;17.13;;;;;;;;;;10355135;28;20111;-69
2023/10/02 17:33:26;;;;;;;21.00;16.42;;;;;;;;;;10362586;28;20047;-69
2023/10/02 17:38:22;;;;;;;21.48;15.95;;;;;;;;;;10359351;28;20048;-70
2023/10/02 17:43:19;;;;;;;22.58;16.70;;;;;;;;;;10354831;28;20495;-70
2023/10/02 17:48:15;;;;;;;24.25;17.30;;;;;;;;;;10361632;28;20516;-70
2023/10/02 17:53:12;;;;;;;23.05;16.98;;;;;;;;;;10362484;28;20048;-70
2023/10/02 17:58:08;;;;;;;22.80;17.85;;;;;;;;;;10368595;28;20048;-70
2023/10/02 18:03:06;;;;;;;24.38;18.65;;;;;;;;;;10336991;28;20056;-70
2023/10/02 18:08:05;;;;;;;23.45;17.95;;;;;;;;;;10352554;28;20055;-70
2023/10/02 18:13:01;;;;;;;22.38;17.58;;;;;;;;;;10352355;28;20076;-70
2023/10/02 18:17:58;;;;;;;28.90;19.30;;;;;;;;;;10356025;28;20105;-69
2023/10/02 18:22:54;;;;;;;28.65;17.92;;;;;;;;;;10347642;28;20052;-69
2023/10/02 18:27:51;;;;;;;24.30;18.67;;;;;;;;;;10364718;28;20059;-69
2023/10/02 18:32:47;;;;;;;28.08;18.63;;;;;;;;;;10355123;28;20109;-69
2023/10/02 18:37:43;;;;;;;26.58;19.88;;;;;;;;;;10353105;28;20056;-70
2023/10/02 18:42:40;;;;;;;28.70;19.80;;;;;;;;;;10354478;28;20467;-69
2023/10/02 18:47:36;;;;;;;22.80;18.27;;;;;;;;;;10360983;28;20066;-69
2023/10/02 18:52:34;;;;;;;26.95;19.10;;;;;;;;;;10358591;28;20048;-69
2023/10/02 18:57:30;;;;;;;23.85;19.25;;;;;;;;;;10362701;28;20162;-70
2023/10/02 19:02:28;;;;;;;26.58;19.40;;;;;;;;;;10336103;28;20499;-70
2023/10/02 19:07:25;;;;;;;27.33;20.23;;;;;;;;;;10333375;28;20056;-70
2023/10/02 19:12:22;;;;;;;25.55;20.15;;;;;;;;;;10359254;28;20541;-69
2023/10/02 19:17:22;;;;;;;27.95;21.38;;;;;;;;;;10358370;28;20511;-70
2023/10/02 19:22:18;;;;;;;27.55;21.73;;;;;;;;;;10357674;28;20490;-70
2023/10/02 19:27:14;;;;;;;29.38;20.77;;;;;;;;;;10360841;28;20541;-70
2023/10/02 19:32:12;;;;;;;30.88;22.02;;;;;;;;;;10371259;28;20060;-70
2023/10/02 19:37:09;;;;;;;31.80;22.38;;;;;;;;;;10360348;28;20050;-70
2023/10/02 19:42:05;;;;;;;27.52;21.90;;;;;;;;;;10356018;28;20102;-70
2023/10/02 19:47:01;;;;;;;28.00;21.35;;;;;;;;;;10358553;28;20048;-69
2023/10/02 19:51:59;;;;;;;26.95;22.27;;;;;;;;;;10359819;28;20048;-70
2023/10/02 19:56:55;;;;;;;32.20;22.45;;;;;;;;;;10364643;28;20048;-70
2023/10/02 20:01:53;;;;;;;30.77;21.10;;;;;;;;;;10357600;28;20087;-70
2023/10/02 20:06:49;;;;;;;27.88;22.25;;;;;;;;;;10371229;28;20554;-70
2023/10/02 20:11:46;;;;;;;31.40;22.38;;;;;;;;;;10371826;28;20051;-69
2023/10/02 20:16:43;;;;;;;32.22;22.80;;;;;;;;;;10356103;28;20080;-70
2023/10/02 20:21:41;;;;;;;32.83;24.15;;;;;;;;;;10367448;28;20125;-69
2023/10/02 20:26:38;;;;;;;33.30;23.27;;;;;;;;;;10367944;28;20071;-69
2023/10/02 20:31:35;;;;;;;30.63;21.63;;;;;;;;;;10358386;28;20071;-70
2023/10/02 20:36:31;;;;;;;30.20;23.20;;;;;;;;;;10358620;28;20058;-70
2023/10/02 20:41:27;;;;;;;27.38;22.20;;;;;;;;;;10366722;28;20177;-70
2023/10/02 20:46:24;;;;;;;32.30;23.45;;;;;;;;;;10361116;28;20051;-70
2023/10/02 20:51:20;;;;;;;34.45;23.20;;;;;;;;;;10364397;28;20444;-70
2023/10/02 20:56:17;;;;;;;31.25;22.00;;;;;;;;;;10365055;28;20048;-69
2023/10/02 21:01:13;;;;;;;31.20;23.13;;;;;;;;;;10350305;28;20052;-70
2023/10/02 21:06:10;;;;;;;28.92;22.38;;;;;;;;;;10354906;28;20064;-69
2023/10/02 21:11:07;;;;;;;36.00;24.23;;;;;;;;;;10362821;28;20298;-69
2023/10/02 21:16:03;;;;;;;32.20;23.65;;;;;;;;;;10355545;28;20127;-69
2023/10/02 21:20:59;;;;;;;32.88;23.63;;;;;;;;;;10353619;28;20058;-69
2023/10/02 21:26:01;;;;;;;30.25;23.60;;;;;;;;;;10351355;28;20047;-70
2023/10/02 21:30:58;;;;;;;33.47;25.07;;;;;;;;;;10365098;28;20071;-70
2023/10/02 21:36:02;;;;;;;26.73;23.85;;;;;;;;;;10349201;28;20527;-69
2023/10/02 21:41:08;;;;;;;32.67;25.02;;;;;;;;;;10361866;28;20047;-69
2023/10/02 21:46:04;;;;;;;37.33;27.05;;;;;;;;;;10340900;28;20054;-69
2023/10/02 21:51:01;;;;;;;33.10;26.52;;;;;;;;;;10360714;28;20059;-69
2023/10/02 21:55:58;;;;;;;30.85;26.13;;;;;;;;;;10359316;28;20745;-69
2023/10/02 22:01:10;;;;;;;35.17;25.20;;;;;;;;;;10353629;28;20106;-69
2023/10/02 22:06:09;;;;;;;36.27;27.80;;;;;;;;;;10359436;28;20072;-69
2023/10/02 22:11:05;;;;;;;33.00;25.30;;;;;;;;;;10360418;28;20058;-69
2023/10/02 22:16:04;;;;;;;43.55;28.70;;;;;;;;;;10369104;28;20090;-70
2023/10/02 22:21:11;;;;;;;36.08;27.50;;;;;;;;;;10366922;28;20521;-69
2023/10/02 22:26:14;;;;;;;35.13;25.45;;;;;;;;;;10362008;28;20127;-69
2023/10/02 22:31:13;;;;;;;38.58;26.55;;;;;;;;;;10364911;28;20051;-69
2023/10/02 22:36:10;;;;;;;35.80;24.45;;;;;;;;;;10357442;28;20052;-69
2023/10/02 22:41:07;;;;;;;34.40;24.13;;;;;;;;;;10364649;28;20052;-71
2023/10/02 22:46:08;;;;;;;31.50;24.27;;;;;;;;;;10351890;28;20056;-69
2023/10/02 22:51:05;;;;;;;35.80;24.90;;;;;;;;;;10354494;28;20051;-69
2023/10/02 22:56:01;;;;;;;27.85;23.05;;;;;;;;;;10358222;28;20044;-69
2023/10/02 23:00:59;;;;;;;27.48;23.20;;;;;;;;;;10364013;28;20074;-69
2023/10/02 23:05:55;;;;;;;30.48;22.95;;;;;;;;;;10359073;28;20407;-69
2023/10/02 23:10:52;;;;;;;30.48;23.95;;;;;;;;;;10364040;28;20052;-70
2023/10/02 23:15:49;;;;;;;38.90;23.38;;;;;;;;;;10350742;28;20568;-69
2023/10/02 23:20:45;;;;;;;31.08;23.08;;;;;;;;;;10345554;28;20040;-69
2023/10/02 23:25:42;;;;;;;35.65;24.30;;;;;;;;;;10373543;28;20100;-69
2023/10/02 23:30:40;;;;;;;26.80;23.55;;;;;;;;;;10371634;28;20055;-69
2023/10/02 23:35:38;;;;;;;33.10;24.73;;;;;;;;;;10364387;28;20052;-70
2023/10/02 23:40:38;;;;;;;31.92;23.17;;;;;;;;;;10356107;28;20052;-69
2023/10/02 23:45:36;;;;;;;30.90;24.48;;;;;;;;;;10366374;28;20055;-69
2023/10/02 23:50:36;;;;;;;39.35;24.67;;;;;;;;;;10357234;28;20105;-70
2023/10/02 23:55:35;;;;;;;29.52;23.20;;;;;;;;;;10338843;28;20055;-69
